ADDS METAR Data INFO
IDs: Format: Raw Decoded Include TAF

Data at: 0356 UTC 19 Jul 2018

KE16 182015Z AUTO 17006KT 9SM CLR 28/12 A2998 RMK AO2
KE16 181955Z AUTO 16005KT 10SM CLR 27/12 A2998 RMK AO2
KE16 181935Z AUTO 18005KT 10SM CLR 26/12 A2999 RMK AO2
KE16 181915Z AUTO 16007KT 120V180 10SM CLR 25/12 A3000 RMK AO2
KE16 181855Z AUTO 15007KT 10SM CLR 24/12 A3001 RMK AO2
KE16 181835Z AUTO 17007KT 10SM CLR 23/12 A3001 RMK AO2
KE16 181815Z AUTO 15005KT 10SM CLR 22/13 A3002 RMK AO2
KE16 181755Z AUTO 15005KT 10SM CLR 21/12 A3002 RMK AO2
KE16 181735Z AUTO 14005KT 10SM CLR 19/12 A3001 RMK AO2
KE16 181715Z AUTO 15005KT 10SM CLR 19/12 A3002 RMK AO2
KE16 181655Z AUTO 12007KT 10SM CLR 18/12 A3002 RMK AO2
KE16 181635Z AUTO 12005KT 10SM CLR 17/12 A3002 RMK AO2
KE16 181615Z AUTO 12006KT 10SM CLR 15/12 A3003 RMK AO2
KE16 181555Z AUTO 11005KT 10SM CLR 14/12 A3003 RMK AO2
KE16 181535Z AUTO 14007KT 10SM CLR 14/11 A3003 RMK AO2
KE16 181515Z AUTO 15006KT 9SM BKN003 13/11 A3003 RMK AO2
KE16 181455Z AUTO 14006KT 5SM BR OVC003 12/10 A3003 RMK AO2
KE16 181435Z AUTO 14006KT 1SM BR OVC003 12/10 A3002 RMK AO2
KE16 181415Z AUTO 13005KT 10SM CLR 12/10 A3002 RMK AO2
KE16 181355Z AUTO 13006KT 10SM FEW003 12/10 A3001 RMK AO2
KE16 181335Z AUTO 16003KT 10SM CLR 12/10 A3000 RMK AO2
KE16 181315Z AUTO 00000KT 9SM CLR 12/11 A3000 RMK AO2
KE16 181255Z AUTO 00000KT 10SM CLR 12/10 A3000 RMK AO2
KE16 181235Z AUTO 00000KT 10SM CLR 12/10 A3000 RMK AO2
KE16 181215Z AUTO 00000KT 10SM CLR 12/11 A3000 RMK AO2
KE16 181155Z AUTO 00000KT 10SM CLR 12/10 A3000 RMK AO2
KE16 181135Z AUTO 14004KT 10SM CLR 12/11 A3001 RMK AO2
KE16 181115Z AUTO 12004KT 10SM CLR 13/11 A3000 RMK AO2
KE16 181055Z AUTO 14003KT 10SM CLR 13/11 A2999 RMK AO2
KE16 181035Z AUTO 00000KT 10SM CLR 13/12 A2999 RMK AO2
KE16 181015Z AUTO 00000KT 10SM CLR 13/12 A2999 RMK AO2
KE16 180955Z AUTO 15003KT 10SM CLR 13/12 A3000 RMK AO2
KE16 180935Z AUTO 16003KT 10SM CLR 14/12 A3000 RMK AO2
KE16 180915Z AUTO 00000KT 10SM CLR 14/12 A3000 RMK AO2
KE16 180855Z AUTO 00000KT 10SM CLR 13/12 A3001 RMK AO2
KE16 180835Z AUTO 00000KT 10SM CLR 14/12 A3001 RMK AO2
KE16 180815Z AUTO 00000KT 10SM CLR 14/12 A3001 RMK AO2
KE16 180755Z AUTO 14003KT 10SM CLR 14/12 A3001 RMK AO2
KE16 180735Z AUTO 00000KT 10SM CLR 14/12 A3001 RMK AO2
KE16 180715Z AUTO 17003KT 10SM CLR 14/12 A3001 RMK AO2
KE16 180655Z AUTO 14003KT 10SM CLR 14/12 A3001 RMK AO2
KE16 180635Z AUTO 13003KT 10SM CLR 14/12 A3001 RMK AO2
KE16 180615Z AUTO 16005KT 10SM CLR 15/12 A3001 RMK AO2
KE16 180555Z AUTO 15004KT 10SM CLR 15/12 A3001 RMK AO2
KE16 180535Z AUTO 16004KT 10SM CLR 15/12 A3000 RMK AO2
KE16 180515Z AUTO 15005KT 10SM CLR 16/12 A3000 RMK AO2
KE16 180455Z AUTO 16004KT 10SM CLR 17/12 A2999 RMK AO2
KE16 180435Z AUTO 13005KT 10SM CLR 17/12 A2999 RMK AO2
KE16 180415Z AUTO 14006KT 10SM CLR 18/12 A2998 RMK AO2
KE16 180355Z AUTO 12009KT 10SM CLR 19/12 A2997 RMK AO2
KE16 180335Z AUTO 15008KT 10SM CLR 20/12 A2997 RMK AO2
KE16 180315Z AUTO 15004KT 10SM CLR 21/12 A2996 RMK AO2
KE16 180255Z AUTO 15007KT 10SM CLR 22/12 A2996 RMK AO2
KE16 180235Z AUTO 16007KT 10SM CLR 22/12 A2995 RMK AO2
KE16 180215Z AUTO 14011KT 10SM CLR 24/12 A2994 RMK AO2
KE16 180155Z AUTO 15009KT 10SM CLR 25/13 A2994 RMK AO2
KE16 180135Z AUTO 13010KT 10SM CLR 27/13 A2993 RMK AO2
KE16 180115Z AUTO 13008KT 10SM CLR 28/13 A2993 RMK AO2
KE16 180055Z AUTO 13006KT 10SM CLR 29/13 A2993 RMK AO2
KE16 180035Z AUTO 13009KT 10SM CLR 30/13 A2993 RMK AO2
KE16 180015Z AUTO 15008KT 10SM CLR 31/14 A2993 RMK AO2
KE16 172355Z AUTO 15009KT 10SM CLR 31/14 A2993 RMK AO2
KE16 172335Z AUTO 13007KT 9SM -RA CLR 32/14 A2993 RMK AO2
KE16 172315Z AUTO 09004KT 10SM CLR 32/14 A2993 RMK AO2
KE16 172255Z AUTO 15004KT 10SM CLR 33/14 A2994 RMK AO2
KE16 172235Z AUTO 04003KT 10SM CLR 34/12 A2994 RMK AO2
KE16 172215Z AUTO 33007KT 280V020 10SM CLR 34/12 A2995 RMK AO2
KE16 172155Z AUTO 33010KT 10SM CLR 34/12 A2995 RMK AO2
KE16 172135Z AUTO 33008KT 320V040 10SM CLR 34/11 A2995 RMK AO2
KE16 172115Z AUTO 36006KT 10SM CLR 33/12 A2996 RMK AO2
KE16 172055Z AUTO 36005KT 10SM CLR 33/13 A2996 RMK AO2
KE16 172035Z AUTO 13003KT 10SM CLR 31/12 A2997 RMK AO2
KE16 172015Z AUTO 10003KT 10SM CLR 30/13 A2998 RMK AO2
KE16 171955Z AUTO 00000KT 10SM CLR 29/13 A2999 RMK AO2
KE16 171935Z AUTO 05003KT 10SM CLR 28/13 A2999 RMK AO2
KE16 171915Z AUTO 15003KT 10SM CLR 27/13 A3000 RMK AO2
KE16 171855Z AUTO 00000KT 10SM CLR 25/14 A3001 RMK AO2
KE16 171835Z AUTO 20004KT 10SM CLR 24/14 A3001 RMK AO2
KE16 171815Z AUTO 15003KT 6SM HZ CLR 23/14 A3001 RMK AO2
KE16 171755Z AUTO 13006KT 10SM CLR 22/14 A3002 RMK AO2
KE16 171735Z AUTO 17003KT 10SM CLR 22/13 A3003 RMK AO2
KE16 171715Z AUTO 00000KT 10SM CLR 20/13 A3003 RMK AO2
KE16 171655Z AUTO 00000KT 10SM CLR 19/13 A3003 RMK AO2
KE16 171635Z AUTO 13003KT 10SM CLR 19/13 A3004 RMK AO2
KE16 171615Z AUTO 00000KT 10SM CLR 18/13 A3004 RMK AO2